sensor_id;sensor_type;location;lat;lon;timestamp;P1;durP1;ratioP1;P2;durP2;ratioP2
63444;SDS011;49573;47.682;9.170;2024-02-23T00:02:03;0.20;;;0.20;;
63444;SDS011;49573;47.682;9.170;2024-02-23T00:04:49;0.30;;;0.20;;
63444;SDS011;49573;47.682;9.170;2024-02-23T00:07:35;0.47;;;0.30;;
63444;SDS011;49573;47.682;9.170;2024-02-23T00:10:23;1.00;;;0.20;;
63444;SDS011;49573;47.682;9.170;2024-02-23T00:13:09;1.15;;;0.10;;
63444;SDS011;49573;47.682;9.170;2024-02-23T00:15:55;0.57;;;0.03;;
63444;SDS011;49573;47.682;9.170;2024-02-23T00:18:41;0.43;;;0.30;;
63444;SDS011;49573;47.682;9.170;2024-02-23T00:21:27;0.73;;;0.50;;
63444;SDS011;49573;47.682;9.170;2024-02-23T00:24:13;0.43;;;0.30;;
63444;SDS011;49573;47.682;9.170;2024-02-23T00:27:03;1.13;;;0.28;;
63444;SDS011;49573;47.682;9.170;2024-02-23T00:29:49;1.67;;;0.40;;
63444;SDS011;49573;47.682;9.170;2024-02-23T00:32:35;0.63;;;0.40;;
63444;SDS011;49573;47.682;9.170;2024-02-23T00:35:21;1.67;;;0.50;;
63444;SDS011;49573;47.682;9.170;2024-02-23T00:38:07;0.60;;;0.30;;
63444;SDS011;49573;47.682;9.170;2024-02-23T00:40:53;0.60;;;0.53;;
63444;SDS011;49573;47.682;9.170;2024-02-23T00:43:41;0.75;;;0.30;;
63444;SDS011;49573;47.682;9.170;2024-02-23T00:46:27;1.50;;;0.47;;
63444;SDS011;49573;47.682;9.170;2024-02-23T00:49:13;1.05;;;0.70;;
63444;SDS011;49573;47.682;9.170;2024-02-23T00:51:59;1.85;;;0.40;;
63444;SDS011;49573;47.682;9.170;2024-02-23T00:54:45;0.65;;;0.40;;
63444;SDS011;49573;47.682;9.170;2024-02-23T00:57:31;1.17;;;0.30;;
63444;SDS011;49573;47.682;9.170;2024-02-23T01:00:19;1.02;;;0.15;;
63444;SDS011;49573;47.682;9.170;2024-02-23T01:03:05;0.60;;;0.40;;
63444;SDS011;49573;47.682;9.170;2024-02-23T01:05:51;0.98;;;0.40;;
63444;SDS011;49573;47.682;9.170;2024-02-23T01:08:37;0.40;;;0.32;;
63444;SDS011;49573;47.682;9.170;2024-02-23T01:11:25;2.10;;;0.35;;
63444;SDS011;49573;47.682;9.170;2024-02-23T01:14:11;0.20;;;0.20;;
63444;SDS011;49573;47.682;9.170;2024-02-23T01:16:59;0.80;;;0.28;;
63444;SDS011;49573;47.682;9.170;2024-02-23T01:19:45;1.02;;;0.30;;
63444;SDS011;49573;47.682;9.170;2024-02-23T01:22:31;0.65;;;0.32;;
63444;SDS011;49573;47.682;9.170;2024-02-23T01:25:17;0.82;;;0.32;;
63444;SDS011;49573;47.682;9.170;2024-02-23T01:28:03;0.50;;;0.30;;
63444;SDS011;49573;47.682;9.170;2024-02-23T01:30:49;0.52;;;0.25;;
63444;SDS011;49573;47.682;9.170;2024-02-23T01:33:37;0.23;;;0.07;;
63444;SDS011;49573;47.682;9.170;2024-02-23T01:36:24;0.20;;;0.20;;
63444;SDS011;49573;47.682;9.170;2024-02-23T01:39:10;1.67;;;0.40;;
63444;SDS011;49573;47.682;9.170;2024-02-23T01:41:56;1.15;;;0.25;;
63444;SDS011;49573;47.682;9.170;2024-02-23T01:44:42;0.03;;;0.03;;
63444;SDS011;49573;47.682;9.170;2024-02-23T01:47:28;0.00;;;0.00;;
63444;SDS011;49573;47.682;9.170;2024-02-23T01:50:17;0.13;;;0.13;;
63444;SDS011;49573;47.682;9.170;2024-02-23T01:53:03;0.30;;;0.10;;
63444;SDS011;49573;47.682;9.170;2024-02-23T01:58:36;0.30;;;0.15;;
63444;SDS011;49573;47.682;9.170;2024-02-23T02:01:23;0.38;;;0.10;;
63444;SDS011;49573;47.682;9.170;2024-02-23T02:04:10;0.10;;;0.10;;
63444;SDS011;49573;47.682;9.170;2024-02-23T02:06:57;0.35;;;0.20;;
63444;SDS011;49573;47.682;9.170;2024-02-23T02:09:44;0.65;;;0.20;;
63444;SDS011;49573;47.682;9.170;2024-02-23T02:12:30;0.50;;;0.20;;
63444;SDS011;49573;47.682;9.170;2024-02-23T02:15:16;0.10;;;0.10;;
63444;SDS011;49573;47.682;9.170;2024-02-23T02:18:02;0.20;;;0.20;;
63444;SDS011;49573;47.682;9.170;2024-02-23T02:20:50;0.10;;;0.10;;
63444;SDS011;49573;47.682;9.170;2024-02-23T02:23:39;0.70;;;0.40;;
63444;SDS011;49573;47.682;9.170;2024-02-23T02:26:25;0.30;;;0.20;;
63444;SDS011;49573;47.682;9.170;2024-02-23T02:29:13;0.43;;;0.10;;
63444;SDS011;49573;47.682;9.170;2024-02-23T02:31:59;3.05;;;0.50;;
63444;SDS011;49573;47.682;9.170;2024-02-23T02:34:45;1.48;;;0.43;;
63444;SDS011;49573;47.682;9.170;2024-02-23T02:37:31;1.37;;;0.30;;
63444;SDS011;49573;47.682;9.170;2024-02-23T02:40:19;2.17;;;0.47;;
63444;SDS011;49573;47.682;9.170;2024-02-23T02:43:05;0.10;;;0.10;;
63444;SDS011;49573;47.682;9.170;2024-02-23T02:45:52;1.35;;;0.28;;
63444;SDS011;49573;47.682;9.170;2024-02-23T02:48:38;0.63;;;0.30;;
63444;SDS011;49573;47.682;9.170;2024-02-23T02:51:24;1.48;;;0.30;;
63444;SDS011;49573;47.682;9.170;2024-02-23T02:54:10;1.60;;;0.35;;
63444;SDS011;49573;47.682;9.170;2024-02-23T02:56:57;1.85;;;0.30;;
63444;SDS011;49573;47.682;9.170;2024-02-23T02:59:43;0.20;;;0.20;;
63444;SDS011;49573;47.682;9.170;2024-02-23T03:02:31;0.45;;;0.35;;
63444;SDS011;49573;47.682;9.170;2024-02-23T03:05:17;2.03;;;0.50;;
63444;SDS011;49573;47.682;9.170;2024-02-23T03:08:03;1.10;;;0.50;;
63444;SDS011;49573;47.682;9.170;2024-02-23T03:10:50;1.85;;;0.30;;
63444;SDS011;49573;47.682;9.170;2024-02-23T03:13:37;1.38;;;0.30;;
63444;SDS011;49573;47.682;9.170;2024-02-23T03:16:35;1.05;;;0.20;;
63444;SDS011;49573;47.682;9.170;2024-02-23T03:19:22;1.60;;;0.47;;
63444;SDS011;49573;47.682;9.170;2024-02-23T03:22:09;1.20;;;0.50;;
63444;SDS011;49573;47.682;9.170;2024-02-23T03:24:55;1.77;;;0.50;;
63444;SDS011;49573;47.682;9.170;2024-02-23T03:27:41;1.95;;;0.50;;
63444;SDS011;49573;47.682;9.170;2024-02-23T03:30:28;0.50;;;0.20;;
63444;SDS011;49573;47.682;9.170;2024-02-23T03:33:14;0.80;;;0.40;;
63444;SDS011;49573;47.682;9.170;2024-02-23T03:36:00;1.48;;;0.50;;
63444;SDS011;49573;47.682;9.170;2024-02-23T03:38:46;0.37;;;0.20;;
63444;SDS011;49573;47.682;9.170;2024-02-23T03:41:33;0.77;;;0.57;;
63444;SDS011;49573;47.682;9.170;2024-02-23T03:44:18;0.55;;;0.28;;
63444;SDS011;49573;47.682;9.170;2024-02-23T03:47:06;1.35;;;0.35;;
63444;SDS011;49573;47.682;9.170;2024-02-23T03:49:52;1.05;;;0.55;;
63444;SDS011;49573;47.682;9.170;2024-02-23T03:52:40;1.33;;;0.60;;
63444;SDS011;49573;47.682;9.170;2024-02-23T03:55:26;0.60;;;0.40;;
63444;SDS011;49573;47.682;9.170;2024-02-23T03:58:12;1.75;;;0.80;;
63444;SDS011;49573;47.682;9.170;2024-02-23T04:00:58;1.67;;;0.60;;
63444;SDS011;49573;47.682;9.170;2024-02-23T04:03:45;1.30;;;0.52;;
63444;SDS011;49573;47.682;9.170;2024-02-23T04:06:31;0.95;;;0.50;;
63444;SDS011;49573;47.682;9.170;2024-02-23T04:09:17;2.95;;;0.50;;
63444;SDS011;49573;47.682;9.170;2024-02-23T04:12:03;1.92;;;0.60;;
63444;SDS011;49573;47.682;9.170;2024-02-23T04:14:49;1.20;;;0.60;;
63444;SDS011;49573;47.682;9.170;2024-02-23T04:17:35;2.20;;;0.80;;
63444;SDS011;49573;47.682;9.170;2024-02-23T04:20:23;1.95;;;0.88;;
63444;SDS011;49573;47.682;9.170;2024-02-23T04:23:09;2.60;;;0.90;;
63444;SDS011;49573;47.682;9.170;2024-02-23T04:25:55;0.73;;;0.50;;
63444;SDS011;49573;47.682;9.170;2024-02-23T04:28:41;0.85;;;0.80;;
63444;SDS011;49573;47.682;9.170;2024-02-23T04:31:27;1.90;;;0.67;;
63444;SDS011;49573;47.682;9.170;2024-02-23T04:34:14;0.93;;;0.50;;
63444;SDS011;49573;47.682;9.170;2024-02-23T04:37:01;3.10;;;0.95;;
63444;SDS011;49573;47.682;9.170;2024-02-23T04:39:47;3.83;;;0.80;;
63444;SDS011;49573;47.682;9.170;2024-02-23T04:42:33;1.50;;;0.73;;
63444;SDS011;49573;47.682;9.170;2024-02-23T04:45:19;2.60;;;1.30;;
63444;SDS011;49573;47.682;9.170;2024-02-23T04:48:06;2.17;;;1.20;;
63444;SDS011;49573;47.682;9.170;2024-02-23T04:50:52;1.35;;;0.95;;
63444;SDS011;49573;47.682;9.170;2024-02-23T04:53:40;3.92;;;1.40;;
63444;SDS011;49573;47.682;9.170;2024-02-23T04:56:26;2.33;;;1.13;;
63444;SDS011;49573;47.682;9.170;2024-02-23T04:59:12;1.42;;;0.95;;
63444;SDS011;49573;47.682;9.170;2024-02-23T05:01:58;1.10;;;0.43;;
63444;SDS011;49573;47.682;9.170;2024-02-23T05:04:44;4.78;;;0.82;;
63444;SDS011;49573;47.682;9.170;2024-02-23T05:07:30;1.42;;;0.30;;
63444;SDS011;49573;47.682;9.170;2024-02-23T05:10:18;1.70;;;0.50;;
63444;SDS011;49573;47.682;9.170;2024-02-23T05:13:04;0.63;;;0.40;;
63444;SDS011;49573;47.682;9.170;2024-02-23T05:15:50;2.63;;;0.57;;
63444;SDS011;49573;47.682;9.170;2024-02-23T05:18:36;2.95;;;0.88;;
63444;SDS011;49573;47.682;9.170;2024-02-23T05:21:22;1.15;;;0.70;;
63444;SDS011;49573;47.682;9.170;2024-02-23T05:24:10;1.23;;;0.60;;
63444;SDS011;49573;47.682;9.170;2024-02-23T05:26:58;1.30;;;0.60;;
63444;SDS011;49573;47.682;9.170;2024-02-23T05:29:47;4.32;;;1.52;;
63444;SDS011;49573;47.682;9.170;2024-02-23T05:32:34;1.35;;;0.77;;
63444;SDS011;49573;47.682;9.170;2024-02-23T05:35:20;1.45;;;0.45;;
63444;SDS011;49573;47.682;9.170;2024-02-23T05:38:06;2.38;;;0.80;;
63444;SDS011;49573;47.682;9.170;2024-02-23T05:40:52;1.05;;;0.70;;
63444;SDS011;49573;47.682;9.170;2024-02-23T05:43:39;1.83;;;0.77;;
63444;SDS011;49573;47.682;9.170;2024-02-23T05:46:25;4.00;;;1.35;;
63444;SDS011;49573;47.682;9.170;2024-02-23T05:49:11;2.58;;;1.15;;
63444;SDS011;49573;47.682;9.170;2024-02-23T05:51:58;2.30;;;1.10;;
63444;SDS011;49573;47.682;9.170;2024-02-23T05:54:44;4.93;;;1.40;;
63444;SDS011;49573;47.682;9.170;2024-02-23T05:57:30;4.38;;;0.95;;
63444;SDS011;49573;47.682;9.170;2024-02-23T06:00:18;3.55;;;1.30;;
63444;SDS011;49573;47.682;9.170;2024-02-23T06:03:04;2.15;;;1.05;;
63444;SDS011;49573;47.682;9.170;2024-02-23T06:05:50;6.05;;;1.25;;
63444;SDS011;49573;47.682;9.170;2024-02-23T06:08:36;3.70;;;1.08;;
63444;SDS011;49573;47.682;9.170;2024-02-23T06:11:22;2.67;;;1.20;;
63444;SDS011;49573;47.682;9.170;2024-02-23T06:14:08;3.58;;;1.50;;
63444;SDS011;49573;47.682;9.170;2024-02-23T06:16:56;3.05;;;1.15;;
63444;SDS011;49573;47.682;9.170;2024-02-23T06:19:42;2.72;;;0.95;;
63444;SDS011;49573;47.682;9.170;2024-02-23T06:22:28;4.38;;;1.50;;
63444;SDS011;49573;47.682;9.170;2024-02-23T06:25:14;3.38;;;1.17;;
63444;SDS011;49573;47.682;9.170;2024-02-23T06:28:00;2.70;;;1.10;;
63444;SDS011;49573;47.682;9.170;2024-02-23T06:30:46;2.85;;;1.00;;
63444;SDS011;49573;47.682;9.170;2024-02-23T06:33:34;2.22;;;0.98;;
63444;SDS011;49573;47.682;9.170;2024-02-23T06:36:20;4.43;;;1.35;;
63444;SDS011;49573;47.682;9.170;2024-02-23T06:39:06;1.33;;;0.90;;
63444;SDS011;49573;47.682;9.170;2024-02-23T06:41:52;4.53;;;1.85;;
63444;SDS011;49573;47.682;9.170;2024-02-23T06:44:38;4.27;;;1.70;;
63444;SDS011;49573;47.682;9.170;2024-02-23T06:47:24;1.98;;;1.20;;
63444;SDS011;49573;47.682;9.170;2024-02-23T06:50:12;1.80;;;1.17;;
63444;SDS011;49573;47.682;9.170;2024-02-23T06:52:58;3.60;;;1.63;;
63444;SDS011;49573;47.682;9.170;2024-02-23T06:55:44;4.15;;;1.75;;
63444;SDS011;49573;47.682;9.170;2024-02-23T06:58:30;3.08;;;1.58;;
63444;SDS011;49573;47.682;9.170;2024-02-23T07:01:16;2.42;;;1.50;;
63444;SDS011;49573;47.682;9.170;2024-02-23T07:04:02;4.22;;;1.73;;
63444;SDS011;49573;47.682;9.170;2024-02-23T07:06:49;3.90;;;1.70;;
63444;SDS011;49573;47.682;9.170;2024-02-23T07:09:35;3.03;;;1.98;;
63444;SDS011;49573;47.682;9.170;2024-02-23T07:12:21;2.88;;;1.90;;
63444;SDS011;49573;47.682;9.170;2024-02-23T07:15:08;4.32;;;1.85;;
63444;SDS011;49573;47.682;9.170;2024-02-23T07:17:54;4.78;;;2.13;;
63444;SDS011;49573;47.682;9.170;2024-02-23T07:20:40;3.25;;;1.58;;
63444;SDS011;49573;47.682;9.170;2024-02-23T07:23:27;3.72;;;1.73;;
63444;SDS011;49573;47.682;9.170;2024-02-23T07:26:13;4.18;;;2.17;;
63444;SDS011;49573;47.682;9.170;2024-02-23T07:28:59;1.80;;;1.40;;
63444;SDS011;49573;47.682;9.170;2024-02-23T07:31:45;3.83;;;1.80;;
63444;SDS011;49573;47.682;9.170;2024-02-23T07:34:31;6.28;;;2.75;;
63444;SDS011;49573;47.682;9.170;2024-02-23T07:37:17;2.65;;;2.10;;
63444;SDS011;49573;47.682;9.170;2024-02-23T07:40:08;3.67;;;2.03;;
63444;SDS011;49573;47.682;9.170;2024-02-23T07:42:54;3.22;;;2.05;;
63444;SDS011;49573;47.682;9.170;2024-02-23T07:45:40;2.47;;;1.70;;
63444;SDS011;49573;47.682;9.170;2024-02-23T07:51:13;1.92;;;1.65;;
63444;SDS011;49573;47.682;9.170;2024-02-23T07:53:59;5.03;;;1.80;;
63444;SDS011;49573;47.682;9.170;2024-02-23T07:56:47;3.70;;;1.83;;
63444;SDS011;49573;47.682;9.170;2024-02-23T07:59:33;6.20;;;2.33;;
63444;SDS011;49573;47.682;9.170;2024-02-23T08:02:19;3.83;;;2.20;;
63444;SDS011;49573;47.682;9.170;2024-02-23T08:05:05;4.00;;;2.00;;
63444;SDS011;49573;47.682;9.170;2024-02-23T08:07:52;4.25;;;2.08;;
63444;SDS011;49573;47.682;9.170;2024-02-23T08:10:38;4.40;;;2.20;;
63444;SDS011;49573;47.682;9.170;2024-02-23T08:13:25;3.13;;;1.95;;
63444;SDS011;49573;47.682;9.170;2024-02-23T08:16:11;2.97;;;2.15;;
63444;SDS011;49573;47.682;9.170;2024-02-23T08:18:57;3.13;;;2.13;;
63444;SDS011;49573;47.682;9.170;2024-02-23T08:21:43;4.90;;;1.77;;
63444;SDS011;49573;47.682;9.170;2024-02-23T08:24:29;3.63;;;2.10;;
63444;SDS011;49573;47.682;9.170;2024-02-23T08:27:02;4.35;;;2.13;;
63444;SDS011;49573;47.682;9.170;2024-02-23T08:29:51;2.97;;;2.15;;
63444;SDS011;49573;47.682;9.170;2024-02-23T08:32:37;2.63;;;1.90;;
63444;SDS011;49573;47.682;9.170;2024-02-23T08:35:23;5.18;;;2.38;;
63444;SDS011;49573;47.682;9.170;2024-02-23T08:38:09;4.10;;;2.72;;
63444;SDS011;49573;47.682;9.170;2024-02-23T08:40:56;3.90;;;2.75;;
63444;SDS011;49573;47.682;9.170;2024-02-23T08:43:43;4.70;;;2.60;;
63444;SDS011;49573;47.682;9.170;2024-02-23T08:46:30;3.47;;;2.20;;
63444;SDS011;49573;47.682;9.170;2024-02-23T08:49:16;3.22;;;2.10;;
63444;SDS011;49573;47.682;9.170;2024-02-23T08:52:02;4.43;;;2.10;;
63444;SDS011;49573;47.682;9.170;2024-02-23T08:54:49;3.45;;;1.95;;
63444;SDS011;49573;47.682;9.170;2024-02-23T08:57:36;2.72;;;1.95;;
63444;SDS011;49573;47.682;9.170;2024-02-23T09:00:22;5.00;;;2.20;;
63444;SDS011;49573;47.682;9.170;2024-02-23T09:03:11;3.08;;;1.90;;
63444;SDS011;49573;47.682;9.170;2024-02-23T09:05:57;5.68;;;2.20;;
63444;SDS011;49573;47.682;9.170;2024-02-23T09:08:43;3.35;;;2.00;;
63444;SDS011;49573;47.682;9.170;2024-02-23T09:11:29;3.10;;;2.05;;
63444;SDS011;49573;47.682;9.170;2024-02-23T09:14:15;4.22;;;2.30;;
63444;SDS011;49573;47.682;9.170;2024-02-23T09:17:01;3.67;;;2.08;;
63444;SDS011;49573;47.682;9.170;2024-02-23T09:19:49;3.20;;;2.20;;
63444;SDS011;49573;47.682;9.170;2024-02-23T09:22:35;3.58;;;2.03;;
63444;SDS011;49573;47.682;9.170;2024-02-23T09:28:08;5.43;;;2.30;;
63444;SDS011;49573;47.682;9.170;2024-02-23T09:30:56;6.28;;;2.42;;
63444;SDS011;49573;47.682;9.170;2024-02-23T09:33:43;3.15;;;1.98;;
63444;SDS011;49573;47.682;9.170;2024-02-23T09:36:32;3.45;;;2.00;;
63444;SDS011;49573;47.682;9.170;2024-02-23T09:39:18;4.20;;;1.80;;
63444;SDS011;49573;47.682;9.170;2024-02-23T09:42:06;3.40;;;2.22;;
63444;SDS011;49573;47.682;9.170;2024-02-23T09:44:57;3.65;;;2.10;;
63444;SDS011;49573;47.682;9.170;2024-02-23T09:47:45;3.70;;;2.05;;
63444;SDS011;49573;47.682;9.170;2024-02-23T09:50:32;2.10;;;1.65;;
63444;SDS011;49573;47.682;9.170;2024-02-23T09:53:20;4.00;;;1.90;;
63444;SDS011;49573;47.682;9.170;2024-02-23T09:56:07;5.55;;;2.38;;
63444;SDS011;49573;47.682;9.170;2024-02-23T09:58:54;3.17;;;1.55;;
63444;SDS011;49573;47.682;9.170;2024-02-23T10:01:42;3.95;;;1.60;;
63444;SDS011;49573;47.682;9.170;2024-02-23T10:04:28;3.30;;;1.43;;
63444;SDS011;49573;47.682;9.170;2024-02-23T10:10:06;3.20;;;1.42;;
63444;SDS011;49573;47.682;9.170;2024-02-23T10:12:52;4.03;;;1.52;;
63444;SDS011;49573;47.682;9.170;2024-02-23T10:15:38;3.78;;;1.35;;
63444;SDS011;49573;47.682;9.170;2024-02-23T10:18:24;2.83;;;1.42;;
63444;SDS011;49573;47.682;9.170;2024-02-23T10:21:10;2.35;;;1.30;;
63444;SDS011;49573;47.682;9.170;2024-02-23T10:23:57;3.70;;;1.33;;
63444;SDS011;49573;47.682;9.170;2024-02-23T10:26:44;4.68;;;1.80;;
63444;SDS011;49573;47.682;9.170;2024-02-23T10:29:30;3.10;;;1.50;;
63444;SDS011;49573;47.682;9.170;2024-02-23T10:32:16;1.88;;;1.00;;
63444;SDS011;49573;47.682;9.170;2024-02-23T10:35:04;5.07;;;1.55;;
63444;SDS011;49573;47.682;9.170;2024-02-23T10:37:56;5.22;;;1.70;;
63444;SDS011;49573;47.682;9.170;2024-02-23T10:40:42;2.63;;;1.25;;
63444;SDS011;49573;47.682;9.170;2024-02-23T10:43:33;3.72;;;1.48;;
63444;SDS011;49573;47.682;9.170;2024-02-23T10:46:24;2.97;;;1.48;;
63444;SDS011;49573;47.682;9.170;2024-02-23T10:49:12;4.07;;;1.50;;
63444;SDS011;49573;47.682;9.170;2024-02-23T10:52:01;6.55;;;1.42;;
63444;SDS011;49573;47.682;9.170;2024-02-23T10:54:49;3.83;;;1.48;;
63444;SDS011;49573;47.682;9.170;2024-02-23T10:57:37;4.50;;;1.73;;
63444;SDS011;49573;47.682;9.170;2024-02-23T11:00:25;3.47;;;1.23;;
63444;SDS011;49573;47.682;9.170;2024-02-23T11:03:11;4.10;;;1.23;;
63444;SDS011;49573;47.682;9.170;2024-02-23T11:05:59;4.03;;;1.35;;
63444;SDS011;49573;47.682;9.170;2024-02-23T11:08:45;2.70;;;1.00;;
63444;SDS011;49573;47.682;9.170;2024-02-23T11:11:32;4.72;;;1.35;;
63444;SDS011;49573;47.682;9.170;2024-02-23T11:17:18;2.88;;;1.27;;
63444;SDS011;49573;47.682;9.170;2024-02-23T11:20:07;4.50;;;1.60;;
63444;SDS011;49573;47.682;9.170;2024-02-23T11:22:59;3.13;;;1.35;;
63444;SDS011;49573;47.682;9.170;2024-02-23T11:25:58;4.63;;;1.50;;
63444;SDS011;49573;47.682;9.170;2024-02-23T11:28:30;3.08;;;1.42;;
63444;SDS011;49573;47.682;9.170;2024-02-23T11:31:18;3.60;;;1.50;;
63444;SDS011;49573;47.682;9.170;2024-02-23T11:34:08;3.03;;;1.33;;
63444;SDS011;49573;47.682;9.170;2024-02-23T11:36:54;5.35;;;1.45;;
63444;SDS011;49573;47.682;9.170;2024-02-23T11:39:41;3.17;;;1.40;;
63444;SDS011;49573;47.682;9.170;2024-02-23T11:42:28;3.88;;;1.40;;
63444;SDS011;49573;47.682;9.170;2024-02-23T11:45:16;2.85;;;1.42;;
63444;SDS011;49573;47.682;9.170;2024-02-23T11:48:02;3.78;;;1.33;;
63444;SDS011;49573;47.682;9.170;2024-02-23T11:50:51;4.85;;;1.55;;
63444;SDS011;49573;47.682;9.170;2024-02-23T11:53:37;5.15;;;1.50;;
63444;SDS011;49573;47.682;9.170;2024-02-23T11:56:23;5.22;;;1.30;;
63444;SDS011;49573;47.682;9.170;2024-02-23T11:59:09;4.97;;;1.45;;
63444;SDS011;49573;47.682;9.170;2024-02-23T12:01:55;4.22;;;1.48;;
63444;SDS011;49573;47.682;9.170;2024-02-23T12:04:42;4.57;;;2.15;;
63444;SDS011;49573;47.682;9.170;2024-02-23T12:07:31;2.55;;;1.67;;
63444;SDS011;49573;47.682;9.170;2024-02-23T12:10:18;2.88;;;1.50;;
63444;SDS011;49573;47.682;9.170;2024-02-23T12:13:04;2.27;;;1.33;;
63444;SDS011;49573;47.682;9.170;2024-02-23T12:15:52;4.20;;;1.40;;
63444;SDS011;49573;47.682;9.170;2024-02-23T12:18:38;5.50;;;2.00;;
63444;SDS011;49573;47.682;9.170;2024-02-23T12:21:24;6.22;;;2.67;;
63444;SDS011;49573;47.682;9.170;2024-02-23T12:24:12;4.07;;;2.35;;
63444;SDS011;49573;47.682;9.170;2024-02-23T12:26:58;5.38;;;2.10;;
63444;SDS011;49573;47.682;9.170;2024-02-23T12:29:50;4.07;;;2.10;;
63444;SDS011;49573;47.682;9.170;2024-02-23T12:32:37;8.00;;;2.30;;
63444;SDS011;49573;47.682;9.170;2024-02-23T12:35:23;3.90;;;2.10;;
63444;SDS011;49573;47.682;9.170;2024-02-23T12:38:09;6.55;;;2.10;;
63444;SDS011;49573;47.682;9.170;2024-02-23T12:40:56;2.88;;;1.67;;
63444;SDS011;49573;47.682;9.170;2024-02-23T12:43:43;4.05;;;1.58;;
63444;SDS011;49573;47.682;9.170;2024-02-23T12:46:30;3.35;;;1.48;;
63444;SDS011;49573;47.682;9.170;2024-02-23T12:49:16;3.13;;;1.48;;
63444;SDS011;49573;47.682;9.170;2024-02-23T12:52:02;4.53;;;1.90;;
63444;SDS011;49573;47.682;9.170;2024-02-23T12:54:48;3.78;;;1.67;;
63444;SDS011;49573;47.682;9.170;2024-02-23T12:57:35;3.42;;;1.88;;
63444;SDS011;49573;47.682;9.170;2024-02-23T13:00:21;3.53;;;1.80;;
63444;SDS011;49573;47.682;9.170;2024-02-23T13:03:07;2.72;;;1.70;;
63444;SDS011;49573;47.682;9.170;2024-02-23T13:05:54;3.17;;;1.67;;
63444;SDS011;49573;47.682;9.170;2024-02-23T13:08:40;4.13;;;1.65;;
63444;SDS011;49573;47.682;9.170;2024-02-23T13:11:27;3.70;;;1.90;;
63444;SDS011;49573;47.682;9.170;2024-02-23T13:14:15;3.90;;;1.65;;
63444;SDS011;49573;47.682;9.170;2024-02-23T13:17:01;2.65;;;1.30;;
63444;SDS011;49573;47.682;9.170;2024-02-23T13:19:47;3.75;;;1.92;;
63444;SDS011;49573;47.682;9.170;2024-02-23T13:22:33;6.78;;;1.77;;
63444;SDS011;49573;47.682;9.170;2024-02-23T13:25:19;6.22;;;1.75;;
63444;SDS011;49573;47.682;9.170;2024-02-23T13:28:05;4.05;;;1.88;;
63444;SDS011;49573;47.682;9.170;2024-02-23T13:30:53;5.90;;;1.83;;
63444;SDS011;49573;47.682;9.170;2024-02-23T13:33:39;4.55;;;1.88;;
63444;SDS011;49573;47.682;9.170;2024-02-23T13:36:25;3.53;;;1.65;;
63444;SDS011;49573;47.682;9.170;2024-02-23T13:39:11;3.03;;;1.60;;
63444;SDS011;49573;47.682;9.170;2024-02-23T13:41:57;4.37;;;1.70;;
63444;SDS011;49573;47.682;9.170;2024-02-23T13:44:43;3.47;;;1.90;;
63444;SDS011;49573;47.682;9.170;2024-02-23T13:47:32;4.63;;;1.45;;
63444;SDS011;49573;47.682;9.170;2024-02-23T13:50:18;2.65;;;1.40;;
63444;SDS011;49573;47.682;9.170;2024-02-23T13:53:04;3.90;;;1.60;;
63444;SDS011;49573;47.682;9.170;2024-02-23T13:55:50;2.83;;;1.60;;
63444;SDS011;49573;47.682;9.170;2024-02-23T13:58:36;3.25;;;1.80;;
63444;SDS011;49573;47.682;9.170;2024-02-23T14:01:23;2.67;;;1.42;;
63444;SDS011;49573;47.682;9.170;2024-02-23T14:04:11;2.85;;;1.67;;
63444;SDS011;49573;47.682;9.170;2024-02-23T14:06:57;3.30;;;1.30;;
63444;SDS011;49573;47.682;9.170;2024-02-23T14:09:43;4.50;;;2.00;;
63444;SDS011;49573;47.682;9.170;2024-02-23T14:12:29;4.90;;;1.90;;
63444;SDS011;49573;47.682;9.170;2024-02-23T14:15:15;2.92;;;1.40;;
63444;SDS011;49573;47.682;9.170;2024-02-23T14:18:01;2.15;;;1.30;;
63444;SDS011;49573;47.682;9.170;2024-02-23T14:20:49;2.00;;;1.15;;
63444;SDS011;49573;47.682;9.170;2024-02-23T14:23:37;2.40;;;1.30;;
63444;SDS011;49573;47.682;9.170;2024-02-23T14:26:23;8.77;;;1.40;;
63444;SDS011;49573;47.682;9.170;2024-02-23T14:29:09;3.05;;;1.23;;
63444;SDS011;49573;47.682;9.170;2024-02-23T14:31:55;3.13;;;1.73;;
63444;SDS011;49573;47.682;9.170;2024-02-23T14:34:41;2.42;;;1.08;;
63444;SDS011;49573;47.682;9.170;2024-02-23T14:37:29;1.60;;;1.02;;
63444;SDS011;49573;47.682;9.170;2024-02-23T14:40:15;5.18;;;1.63;;
63444;SDS011;49573;47.682;9.170;2024-02-23T14:43:01;2.90;;;1.17;;
63444;SDS011;49573;47.682;9.170;2024-02-23T14:45:47;3.35;;;1.20;;
63444;SDS011;49573;47.682;9.170;2024-02-23T14:48:34;4.13;;;1.52;;
63444;SDS011;49573;47.682;9.170;2024-02-23T14:51:20;2.83;;;1.27;;
63444;SDS011;49573;47.682;9.170;2024-02-23T14:54:07;3.38;;;1.60;;
63444;SDS011;49573;47.682;9.170;2024-02-23T14:56:53;1.73;;;1.17;;
63444;SDS011;49573;47.682;9.170;2024-02-23T14:59:39;2.58;;;1.38;;
63444;SDS011;49573;47.682;9.170;2024-02-23T15:02:31;2.58;;;1.13;;
63444;SDS011;49573;47.682;9.170;2024-02-23T15:05:17;1.57;;;1.07;;
63444;SDS011;49573;47.682;9.170;2024-02-23T15:08:04;2.13;;;1.13;;
63444;SDS011;49573;47.682;9.170;2024-02-23T15:13:38;5.45;;;1.25;;
63444;SDS011;49573;47.682;9.170;2024-02-23T15:16:25;1.20;;;0.93;;
63444;SDS011;49573;47.682;9.170;2024-02-23T15:19:11;2.47;;;0.98;;
63444;SDS011;49573;47.682;9.170;2024-02-23T15:21:57;2.83;;;1.03;;
63444;SDS011;49573;47.682;9.170;2024-02-23T15:24:43;1.50;;;0.85;;
63444;SDS011;49573;47.682;9.170;2024-02-23T15:27:36;3.53;;;1.60;;
63444;SDS011;49573;47.682;9.170;2024-02-23T15:30:22;1.63;;;1.10;;
63444;SDS011;49573;47.682;9.170;2024-02-23T15:33:09;2.40;;;1.20;;
63444;SDS011;49573;47.682;9.170;2024-02-23T15:35:55;3.47;;;1.08;;
63444;SDS011;49573;47.682;9.170;2024-02-23T15:38:41;1.20;;;0.80;;
63444;SDS011;49573;47.682;9.170;2024-02-23T15:41:28;1.70;;;1.20;;
63444;SDS011;49573;47.682;9.170;2024-02-23T15:44:16;2.20;;;1.20;;
63444;SDS011;49573;47.682;9.170;2024-02-23T15:47:02;3.67;;;1.00;;
63444;SDS011;49573;47.682;9.170;2024-02-23T15:49:48;2.67;;;1.17;;
63444;SDS011;49573;47.682;9.170;2024-02-23T15:52:35;4.65;;;1.15;;
63444;SDS011;49573;47.682;9.170;2024-02-23T15:55:21;1.63;;;0.98;;
63444;SDS011;49573;47.682;9.170;2024-02-23T15:58:07;1.80;;;1.20;;
63444;SDS011;49573;47.682;9.170;2024-02-23T16:00:55;1.92;;;1.20;;
63444;SDS011;49573;47.682;9.170;2024-02-23T16:03:41;3.38;;;2.00;;
63444;SDS011;49573;47.682;9.170;2024-02-23T16:06:27;3.22;;;1.48;;
63444;SDS011;49573;47.682;9.170;2024-02-23T16:09:18;2.67;;;1.55;;
63444;SDS011;49573;47.682;9.170;2024-02-23T16:12:04;2.60;;;1.83;;
63444;SDS011;49573;47.682;9.170;2024-02-23T16:14:51;2.75;;;1.60;;
63444;SDS011;49573;47.682;9.170;2024-02-23T16:17:38;3.00;;;1.40;;
63444;SDS011;49573;47.682;9.170;2024-02-23T16:20:24;4.95;;;1.75;;
63444;SDS011;49573;47.682;9.170;2024-02-23T16:23:11;5.18;;;2.10;;
63444;SDS011;49573;47.682;9.170;2024-02-23T16:25:57;2.90;;;1.80;;
63444;SDS011;49573;47.682;9.170;2024-02-23T16:28:43;2.22;;;1.58;;
63444;SDS011;49573;47.682;9.170;2024-02-23T16:31:29;1.98;;;1.20;;
63444;SDS011;49573;47.682;9.170;2024-02-23T16:34:16;4.32;;;1.38;;
63444;SDS011;49573;47.682;9.170;2024-02-23T16:37:02;2.38;;;1.27;;
63444;SDS011;49573;47.682;9.170;2024-02-23T16:39:49;2.45;;;1.50;;
63444;SDS011;49573;47.682;9.170;2024-02-23T16:42:35;2.13;;;1.33;;
63444;SDS011;49573;47.682;9.170;2024-02-23T16:45:21;2.15;;;1.30;;
63444;SDS011;49573;47.682;9.170;2024-02-23T16:48:07;2.72;;;1.67;;
63444;SDS011;49573;47.682;9.170;2024-02-23T16:50:54;2.83;;;1.33;;
63444;SDS011;49573;47.682;9.170;2024-02-23T16:53:41;3.20;;;1.45;;
63444;SDS011;49573;47.682;9.170;2024-02-23T16:56:27;2.17;;;1.38;;
63444;SDS011;49573;47.682;9.170;2024-02-23T16:59:13;2.38;;;1.33;;
63444;SDS011;49573;47.682;9.170;2024-02-23T17:02:00;4.80;;;1.40;;